Time;durP1;ratioP1;P1;durP2;ratioP2;P2;SDS_P1;SDS_P2;PMS_P1;PMS_P2;Temp;Humidity;BMP_temperature;BMP_pressure;BME280_temperature;BME280_humidity;BME280_pressure;Samples;Min_cycle;Max_cycle;Signal;HPM_P1;HPM_P2
2023/07/31 00:02:18;;;;;;;5.30;1.80;;;;;;;;;;106467;1284;22652;-81
2023/07/31 00:04:44;;;;;;;4.10;1.60;;;;;;;;;;106381;1265;22762;-77
2023/07/31 00:07:11;;;;;;;4.30;1.60;;;;;;;;;;106403;1283;24327;-82
2023/07/31 00:09:38;;;;;;;6.10;1.90;;;;;;;;;;106380;1283;22635;-76
2023/07/31 00:12:05;;;;;;;4.80;1.60;;;;;;;;;;106433;1283;22551;-81
2023/07/31 00:14:32;;;;;;;4.50;1.70;;;;;;;;;;106339;1280;22529;-83
2023/07/31 00:16:58;;;;;;;4.80;1.60;;;;;;;;;;106077;1284;22652;-83
2023/07/31 00:19:25;;;;;;;6.80;1.90;;;;;;;;;;106459;1284;22533;-79
2023/07/31 00:21:52;;;;;;;6.10;2.00;;;;;;;;;;106417;1284;22528;-80
2023/07/31 00:24:19;;;;;;;5.20;1.90;;;;;;;;;;106383;1284;22553;-77
2023/07/31 00:26:45;;;;;;;6.90;2.30;;;;;;;;;;106401;1266;25405;-78
2023/07/31 00:29:12;;;;;;;7.50;2.00;;;;;;;;;;106475;1283;25220;-76
2023/07/31 00:31:39;;;;;;;5.30;1.90;;;;;;;;;;106490;1283;25437;-81
2023/07/31 00:34:06;;;;;;;5.70;1.90;;;;;;;;;;106443;1282;22524;-80
2023/07/31 00:36:36;;;;;;;5.20;1.60;;;;;;;;;;106477;1283;22554;-81
2023/07/31 00:39:05;;;;;;;5.90;2.10;;;;;;;;;;106123;1281;22537;-80
2023/07/31 00:41:32;;;;;;;7.20;2.00;;;;;;;;;;106124;1285;25450;-82
2023/07/31 00:43:58;;;;;;;6.50;2.00;;;;;;;;;;106416;1285;22534;-81
2023/07/31 00:46:25;;;;;;;6.10;2.10;;;;;;;;;;106418;1266;25297;-79
2023/07/31 00:48:52;;;;;;;5.30;1.90;;;;;;;;;;106418;1284;25436;-80
2023/07/31 00:51:19;;;;;;;5.50;1.60;;;;;;;;;;106447;1284;22549;-78
2023/07/31 00:53:47;;;;;;;5.30;1.60;;;;;;;;;;106435;1284;24250;-79
2023/07/31 00:56:14;;;;;;;5.10;1.80;;;;;;;;;;106390;1269;25274;-76
2023/07/31 00:58:40;;;;;;;7.60;2.50;;;;;;;;;;106339;1285;24502;-80
2023/07/31 01:01:09;;;;;;;5.40;1.80;;;;;;;;;;106377;1285;22591;-83
2023/07/31 01:03:35;;;;;;;6.90;2.20;;;;;;;;;;106048;1285;24354;-81
2023/07/31 01:06:05;;;;;;;7.80;2.10;;;;;;;;;;106391;1266;22572;-81
2023/07/31 01:08:35;;;;;;;6.30;2.00;;;;;;;;;;106389;1285;22527;-84
2023/07/31 01:11:19;;;;;;;7.80;1.90;;;;;;;;;;106347;1285;22531;-81
2023/07/31 01:13:46;;;;;;;6.00;1.80;;;;;;;;;;106468;1285;25242;-78
2023/07/31 01:16:13;;;;;;;5.80;1.80;;;;;;;;;;106448;1266;24200;-77
2023/07/31 01:18:40;;;;;;;6.50;1.70;;;;;;;;;;106398;1285;24263;-78
2023/07/31 01:21:19;;;;;;;5.30;1.60;;;;;;;;;;106033;1285;22533;-80
2023/07/31 01:23:49;;;;;;;6.50;2.10;;;;;;;;;;106278;1285;22768;-80
2023/07/31 01:26:28;;;;;;;5.40;1.90;;;;;;;;;;109950;1267;22123;-76
2023/07/31 01:28:54;;;;;;;5.80;1.60;;;;;;;;;;109800;1285;22400;-77
2023/07/31 01:31:23;;;;;;;5.30;1.40;;;;;;;;;;109877;1285;22951;-76
2023/07/31 01:33:50;;;;;;;4.80;1.50;;;;;;;;;;109847;1285;23026;-76
2023/07/31 01:36:17;;;;;;;5.60;1.70;;;;;;;;;;109806;1263;22933;-77
2023/07/31 01:38:44;;;;;;;5.50;1.90;;;;;;;;;;109949;1284;22432;-78
2023/07/31 01:41:10;;;;;;;6.40;1.90;;;;;;;;;;109968;1284;22707;-76
2023/07/31 01:43:38;;;;;;;6.80;1.90;;;;;;;;;;109899;1284;22606;-77
2023/07/31 01:46:05;;;;;;;8.30;1.90;;;;;;;;;;110338;1277;22116;-77
2023/07/31 01:48:35;;;;;;;5.90;1.60;;;;;;;;;;110658;1260;22231;-76
2023/07/31 01:51:02;;;;;;;6.30;1.80;;;;;;;;;;110207;1277;22129;-77
2023/07/31 01:53:31;;;;;;;5.10;1.80;;;;;;;;;;110316;1277;22899;-76
2023/07/31 01:55:58;;;;;;;5.20;1.80;;;;;;;;;;110403;1276;22383;-76
2023/07/31 01:58:24;;;;;;;8.20;1.90;;;;;;;;;;110483;1260;22202;-76
2023/07/31 02:00:51;;;;;;;7.20;2.00;;;;;;;;;;110285;1277;22320;-76
2023/07/31 02:03:17;;;;;;;5.40;2.00;;;;;;;;;;110308;1277;22776;-77
2023/07/31 02:05:47;;;;;;;6.20;2.00;;;;;;;;;;110459;1277;22112;-76
2023/07/31 02:08:14;;;;;;;6.40;1.80;;;;;;;;;;110719;1269;22750;-76
2023/07/31 02:10:41;;;;;;;6.10;1.60;;;;;;;;;;110447;1276;22837;-76
2023/07/31 02:13:07;;;;;;;6.10;1.80;;;;;;;;;;110570;1276;22942;-76
2023/07/31 02:15:34;;;;;;;6.20;1.80;;;;;;;;;;110601;1276;22143;-76
2023/07/31 02:18:01;;;;;;;6.90;1.80;;;;;;;;;;110326;1272;22428;-77
2023/07/31 02:20:27;;;;;;;6.80;1.80;;;;;;;;;;110482;1277;22105;-76
2023/07/31 02:22:54;;;;;;;7.00;2.00;;;;;;;;;;110173;1277;22156;-76
2023/07/31 02:25:21;;;;;;;6.80;2.00;;;;;;;;;;110295;1277;22074;-77
2023/07/31 02:28:12;;;;;;;7.30;2.00;;;;;;;;;;110274;1270;22383;-77
2023/07/31 02:30:49;;;;;;;6.90;1.80;;;;;;;;;;110344;1277;22104;-75
2023/07/31 02:33:16;;;;;;;6.20;1.50;;;;;;;;;;110287;1277;22105;-76
2023/07/31 02:35:44;;;;;;;5.90;1.70;;;;;;;;;;110294;1277;21919;-75
2023/07/31 02:38:13;;;;;;;5.50;1.60;;;;;;;;;;110842;1250;22110;-76
2023/07/31 02:40:41;;;;;;;5.30;1.50;;;;;;;;;;110842;1272;22077;-75
2023/07/31 02:43:08;;;;;;;5.70;2.00;;;;;;;;;;110700;1272;22296;-75
2023/07/31 02:45:34;;;;;;;9.40;2.10;;;;;;;;;;110892;1272;22828;-75
2023/07/31 02:48:01;;;;;;;8.00;2.20;;;;;;;;;;110880;1250;22121;-76
2023/07/31 02:50:28;;;;;;;7.90;2.20;;;;;;;;;;110656;1273;22077;-75
2023/07/31 02:52:55;;;;;;;7.10;2.10;;;;;;;;;;110686;1273;23056;-75
2023/07/31 02:55:21;;;;;;;9.00;1.80;;;;;;;;;;110753;1273;22086;-75
2023/07/31 02:57:48;;;;;;;6.70;1.70;;;;;;;;;;110684;1249;22777;-75
2023/07/31 03:00:15;;;;;;;5.00;1.60;;;;;;;;;;110691;1272;22719;-75
2023/07/31 03:02:42;;;;;;;5.50;1.80;;;;;;;;;;110663;1272;22109;-75
2023/07/31 03:05:08;;;;;;;6.70;1.90;;;;;;;;;;110758;1272;22153;-76
2023/07/31 03:07:35;;;;;;;6.40;2.10;;;;;;;;;;110757;1272;22083;-75
2023/07/31 03:10:02;;;;;;;6.20;1.60;;;;;;;;;;111074;1253;22305;-75
2023/07/31 03:12:29;;;;;;;7.60;2.50;;;;;;;;;;110673;1274;22169;-75
2023/07/31 03:14:55;;;;;;;5.80;1.80;;;;;;;;;;110662;1274;23054;-75
2023/07/31 03:17:22;;;;;;;6.70;1.80;;;;;;;;;;110632;1274;22210;-75
2023/07/31 03:19:49;;;;;;;5.90;2.10;;;;;;;;;;110826;1253;22117;-75
2023/07/31 03:22:15;;;;;;;5.50;1.70;;;;;;;;;;110744;1273;22092;-75
2023/07/31 03:24:42;;;;;;;7.10;1.90;;;;;;;;;;110663;1273;22089;-75
2023/07/31 03:27:09;;;;;;;6.70;2.00;;;;;;;;;;110663;1273;22074;-75
2023/07/31 03:29:35;;;;;;;7.30;2.20;;;;;;;;;;111140;1249;22140;-76
2023/07/31 03:32:02;;;;;;;5.90;1.90;;;;;;;;;;110714;1272;23015;-75
2023/07/31 03:34:29;;;;;;;7.40;2.10;;;;;;;;;;110866;1272;22095;-74
2023/07/31 03:36:55;;;;;;;5.80;1.90;;;;;;;;;;110763;1273;22161;-75
2023/07/31 03:39:22;;;;;;;5.70;1.80;;;;;;;;;;110787;1259;22180;-75
2023/07/31 03:41:50;;;;;;;10.60;2.00;;;;;;;;;;110622;1275;23111;-75
2023/07/31 03:44:18;;;;;;;7.70;1.80;;;;;;;;;;110615;1275;22074;-76
2023/07/31 03:46:44;;;;;;;7.70;2.10;;;;;;;;;;110606;1275;22137;-77
2023/07/31 03:49:11;;;;;;;7.00;1.90;;;;;;;;;;110848;1251;21972;-76
2023/07/31 03:51:38;;;;;;;6.40;1.80;;;;;;;;;;110645;1273;22097;-75
2023/07/31 03:54:04;;;;;;;7.10;2.20;;;;;;;;;;110673;1273;22096;-75
2023/07/31 03:56:31;;;;;;;5.50;2.10;;;;;;;;;;110664;1273;22126;-75
2023/07/31 03:58:58;;;;;;;5.40;1.80;;;;;;;;;;110754;1251;22132;-75
2023/07/31 04:01:26;;;;;;;6.00;1.70;;;;;;;;;;110545;1274;22098;-75
2023/07/31 04:03:53;;;;;;;6.90;1.70;;;;;;;;;;110633;1274;22298;-75
2023/07/31 04:06:20;;;;;;;6.20;1.90;;;;;;;;;;110662;1274;22823;-76
2023/07/31 04:08:46;;;;;;;5.70;1.60;;;;;;;;;;110658;1274;22141;-76
2023/07/31 04:11:13;;;;;;;6.00;2.20;;;;;;;;;;111011;1253;22461;-76
2023/07/31 04:13:40;;;;;;;8.40;1.90;;;;;;;;;;110667;1273;22110;-75
2023/07/31 04:16:06;;;;;;;6.80;2.00;;;;;;;;;;110823;1273;22061;-75
2023/07/31 04:18:33;;;;;;;5.60;1.80;;;;;;;;;;110650;1273;22110;-75
2023/07/31 04:21:01;;;;;;;6.70;2.10;;;;;;;;;;110616;1253;22124;-75
2023/07/31 04:23:27;;;;;;;6.00;1.70;;;;;;;;;;110601;1275;22129;-75
2023/07/31 04:25:54;;;;;;;5.70;1.60;;;;;;;;;;110632;1275;22140;-75
2023/07/31 04:28:21;;;;;;;4.80;1.70;;;;;;;;;;110650;1275;22114;-75
2023/07/31 04:30:47;;;;;;;7.40;2.10;;;;;;;;;;110698;1254;22863;-76
2023/07/31 04:33:14;;;;;;;5.80;1.90;;;;;;;;;;110689;1273;22098;-75
2023/07/31 04:35:41;;;;;;;6.60;2.10;;;;;;;;;;110657;1273;22046;-75
2023/07/31 04:38:07;;;;;;;6.50;1.90;;;;;;;;;;110665;1273;22100;-75
2023/07/31 04:40:34;;;;;;;8.80;2.10;;;;;;;;;;110571;1253;22184;-75
2023/07/31 04:43:01;;;;;;;5.60;1.90;;;;;;;;;;110561;1275;22125;-75
2023/07/31 04:45:28;;;;;;;5.90;1.80;;;;;;;;;;110588;1275;22096;-75
2023/07/31 04:47:54;;;;;;;5.40;1.60;;;;;;;;;;110591;1275;22110;-75
2023/07/31 04:50:21;;;;;;;5.80;1.80;;;;;;;;;;110615;1254;22307;-76
2023/07/31 04:52:47;;;;;;;8.80;2.30;;;;;;;;;;110719;1273;22228;-75
2023/07/31 04:55:14;;;;;;;8.00;2.40;;;;;;;;;;110738;1273;22338;-75
2023/07/31 04:57:41;;;;;;;5.50;2.10;;;;;;;;;;110665;1273;22113;-75
2023/07/31 05:00:08;;;;;;;8.20;1.90;;;;;;;;;;110690;1251;22249;-75
2023/07/31 05:02:34;;;;;;;13.60;3.20;;;;;;;;;;110496;1274;22889;-75
2023/07/31 05:05:01;;;;;;;13.20;2.80;;;;;;;;;;110594;1274;22108;-75
2023/07/31 05:07:28;;;;;;;13.70;2.50;;;;;;;;;;110654;1274;22103;-75
2023/07/31 05:09:54;;;;;;;12.80;2.90;;;;;;;;;;110652;1274;22129;-75
2023/07/31 05:12:21;;;;;;;13.60;2.50;;;;;;;;;;110989;1253;22195;-75
2023/07/31 05:14:48;;;;;;;16.20;2.60;;;;;;;;;;110715;1273;22101;-75
2023/07/31 05:17:14;;;;;;;20.50;2.60;;;;;;;;;;110703;1273;22099;-75
2023/07/31 05:19:41;;;;;;;14.70;2.40;;;;;;;;;;110620;1273;22094;-75
2023/07/31 05:22:08;;;;;;;10.30;2.40;;;;;;;;;;111028;1253;22112;-76
2023/07/31 05:24:35;;;;;;;10.00;2.10;;;;;;;;;;110645;1274;22170;-75
2023/07/31 05:27:01;;;;;;;8.50;2.10;;;;;;;;;;110622;1265;22012;-75
2023/07/31 05:29:28;;;;;;;8.00;2.20;;;;;;;;;;110585;1274;21916;-75
2023/07/31 05:31:55;;;;;;;5.10;1.60;;;;;;;;;;110898;1256;22781;-75
2023/07/31 05:34:21;;;;;;;8.70;2.10;;;;;;;;;;110632;1273;22102;-75
2023/07/31 05:36:48;;;;;;;6.50;1.70;;;;;;;;;;110705;1273;22219;-75
2023/07/31 05:39:15;;;;;;;8.30;1.80;;;;;;;;;;110671;1274;22163;-75
2023/07/31 05:41:42;;;;;;;4.60;1.40;;;;;;;;;;110760;1257;22168;-75
2023/07/31 05:44:09;;;;;;;6.80;1.70;;;;;;;;;;110479;1276;22115;-75
2023/07/31 05:46:35;;;;;;;8.40;2.10;;;;;;;;;;110486;1275;22238;-75
2023/07/31 05:49:02;;;;;;;9.40;2.00;;;;;;;;;;110518;1276;22120;-75
2023/07/31 05:51:29;;;;;;;7.20;1.90;;;;;;;;;;110702;1256;22102;-75
2023/07/31 05:53:55;;;;;;;10.90;2.00;;;;;;;;;;110661;1274;22079;-75
2023/07/31 05:56:22;;;;;;;8.10;2.00;;;;;;;;;;110522;1274;22260;-75
2023/07/31 05:58:50;;;;;;;7.90;2.00;;;;;;;;;;110676;1274;22056;-76
2023/07/31 06:01:17;;;;;;;7.40;2.00;;;;;;;;;;110623;1253;22103;-76
2023/07/31 06:03:44;;;;;;;8.10;1.80;;;;;;;;;;110506;1263;22086;-76
2023/07/31 06:06:10;;;;;;;5.70;1.70;;;;;;;;;;110444;1275;22116;-75
2023/07/31 06:08:37;;;;;;;6.30;1.60;;;;;;;;;;110487;1275;22125;-76
2023/07/31 06:11:05;;;;;;;8.20;1.80;;;;;;;;;;110486;1275;22124;-76
2023/07/31 06:13:32;;;;;;;6.50;1.50;;;;;;;;;;111173;1255;22121;-76
2023/07/31 06:15:59;;;;;;;6.00;1.70;;;;;;;;;;110509;1274;22141;-75
2023/07/31 06:18:26;;;;;;;5.40;1.80;;;;;;;;;;110682;1274;22111;-74
2023/07/31 06:20:53;;;;;;;8.40;1.90;;;;;;;;;;110678;1274;22293;-76
2023/07/31 06:23:20;;;;;;;7.80;2.10;;;;;;;;;;110806;1257;22147;-75
2023/07/31 06:25:47;;;;;;;4.90;1.60;;;;;;;;;;110604;1276;22086;-75
2023/07/31 06:28:14;;;;;;;6.40;1.80;;;;;;;;;;110464;1276;22239;-75
2023/07/31 06:30:41;;;;;;;6.30;2.00;;;;;;;;;;110507;1276;22138;-75
2023/07/31 06:33:09;;;;;;;7.60;1.90;;;;;;;;;;110756;1256;22124;-76
2023/07/31 06:35:36;;;;;;;6.30;1.90;;;;;;;;;;110684;1274;22215;-76
2023/07/31 06:38:03;;;;;;;7.50;1.70;;;;;;;;;;110640;1274;22162;-76
2023/07/31 06:40:31;;;;;;;6.90;2.00;;;;;;;;;;110629;1275;22101;-76
2023/07/31 06:42:59;;;;;;;6.70;1.70;;;;;;;;;;110627;1257;22431;-76
2023/07/31 06:45:26;;;;;;;6.80;1.60;;;;;;;;;;110597;1276;22093;-76
2023/07/31 06:47:54;;;;;;;4.60;1.60;;;;;;;;;;110483;1276;22301;-75
2023/07/31 06:50:21;;;;;;;7.10;1.90;;;;;;;;;;110485;1276;22125;-75
2023/07/31 06:52:49;;;;;;;8.30;1.80;;;;;;;;;;110647;1256;22099;-76
2023/07/31 06:55:18;;;;;;;5.70;1.90;;;;;;;;;;110589;1275;22823;-75
2023/07/31 06:57:47;;;;;;;9.20;2.10;;;;;;;;;;110489;1275;22171;-75
2023/07/31 07:00:14;;;;;;;6.30;2.00;;;;;;;;;;110591;1275;22128;-75
2023/07/31 07:02:42;;;;;;;7.10;2.10;;;;;;;;;;110569;1254;22143;-75
2023/07/31 07:05:10;;;;;;;7.80;1.80;;;;;;;;;;110495;1276;22135;-75
2023/07/31 07:07:38;;;;;;;6.40;2.20;;;;;;;;;;110588;1276;22054;-75
2023/07/31 07:10:06;;;;;;;5.40;1.90;;;;;;;;;;110462;1276;22163;-75
2023/07/31 07:12:34;;;;;;;5.90;2.10;;;;;;;;;;110451;1275;23089;-76
2023/07/31 07:15:02;;;;;;;5.50;1.90;;;;;;;;;;110568;1254;22073;-76
2023/07/31 07:17:33;;;;;;;7.10;2.10;;;;;;;;;;110510;1275;22085;-76
2023/07/31 07:20:03;;;;;;;7.00;2.40;;;;;;;;;;110499;1275;22137;-75
2023/07/31 07:22:30;;;;;;;6.50;1.90;;;;;;;;;;110520;1275;22577;-75
2023/07/31 07:24:58;;;;;;;5.50;1.80;;;;;;;;;;110982;1257;22866;-75
2023/07/31 07:27:26;;;;;;;5.10;1.80;;;;;;;;;;110612;1276;22097;-75
2023/07/31 07:29:53;;;;;;;6.20;2.30;;;;;;;;;;110592;1276;22099;-75
2023/07/31 07:32:21;;;;;;;6.70;2.30;;;;;;;;;;110603;1276;22080;-75
2023/07/31 07:34:48;;;;;;;8.20;2.00;;;;;;;;;;110659;1257;22127;-76
2023/07/31 07:37:17;;;;;;;9.40;2.30;;;;;;;;;;110608;1275;22162;-76
2023/07/31 07:39:47;;;;;;;6.30;2.10;;;;;;;;;;110597;1275;22872;-75
2023/07/31 07:42:16;;;;;;;6.40;2.20;;;;;;;;;;110637;1275;22761;-74
2023/07/31 07:44:44;;;;;;;5.90;2.10;;;;;;;;;;110615;1257;22118;-75
2023/07/31 07:47:13;;;;;;;8.50;2.40;;;;;;;;;;110319;1276;22086;-75
2023/07/31 07:49:43;;;;;;;6.10;2.00;;;;;;;;;;110483;1276;22092;-75
2023/07/31 07:52:12;;;;;;;6.50;2.20;;;;;;;;;;110310;1276;22031;-76
2023/07/31 07:54:41;;;;;;;5.50;1.90;;;;;;;;;;110504;1259;22906;-75
2023/07/31 07:57:09;;;;;;;7.00;2.20;;;;;;;;;;110605;1275;21732;-75
2023/07/31 07:59:39;;;;;;;6.30;2.10;;;;;;;;;;110517;1275;22062;-75
2023/07/31 08:02:08;;;;;;;6.70;2.20;;;;;;;;;;110480;1275;22102;-75
2023/07/31 08:04:37;;;;;;;5.90;1.80;;;;;;;;;;110472;1258;22744;-76
2023/07/31 08:07:07;;;;;;;6.00;1.80;;;;;;;;;;110453;1277;22190;-75
2023/07/31 08:09:35;;;;;;;7.50;2.00;;;;;;;;;;110441;1277;22154;-76
2023/07/31 08:12:05;;;;;;;6.10;2.20;;;;;;;;;;110294;1277;22155;-75
2023/07/31 08:14:33;;;;;;;5.70;2.00;;;;;;;;;;110621;1255;22117;-75
2023/07/31 08:17:03;;;;;;;7.10;2.00;;;;;;;;;;110645;1275;22083;-75
2023/07/31 08:19:31;;;;;;;6.20;1.70;;;;;;;;;;110500;1275;22105;-75
2023/07/31 08:22:00;;;;;;;6.20;1.90;;;;;;;;;;110597;1275;22096;-75
2023/07/31 08:24:29;;;;;;;8.80;1.90;;;;;;;;;;110486;1259;22972;-75
2023/07/31 08:26:58;;;;;;;8.10;2.10;;;;;;;;;;110451;1277;22099;-75
2023/07/31 08:29:27;;;;;;;8.30;2.30;;;;;;;;;;110439;1277;22733;-75
2023/07/31 08:31:56;;;;;;;7.10;2.00;;;;;;;;;;110291;1277;22120;-76
2023/07/31 08:34:24;;;;;;;6.50;2.10;;;;;;;;;;110459;1254;22639;-76
2023/07/31 08:43:55;;;;;;;5.60;1.50;;;;;;;;;;104145;1302;544827;-77
2023/07/31 08:46:21;;;;;;;6.00;1.60;;;;;;;;;;106433;1284;24257;-77
2023/07/31 08:48:50;;;;;;;8.00;2.00;;;;;;;;;;106078;1284;24432;-81
2023/07/31 08:51:17;;;;;;;5.40;1.90;;;;;;;;;;106453;1284;24232;-80
2023/07/31 08:53:44;;;;;;;5.80;1.80;;;;;;;;;;106254;1269;24370;-84
2023/07/31 08:56:11;;;;;;;7.10;2.00;;;;;;;;;;106286;1285;22546;-77
2023/07/31 08:58:41;;;;;;;6.80;1.90;;;;;;;;;;103923;1283;3562214;-81
2023/07/31 09:01:08;;;;;;;8.60;2.00;;;;;;;;;;106906;1283;22552;-78
2023/07/31 09:03:36;;;;;;;7.20;2.00;;;;;;;;;;106647;1263;23908;-78
2023/07/31 09:06:06;;;;;;;9.40;2.30;;;;;;;;;;107567;1270;22613;-82
2023/07/31 09:08:33;;;;;;;8.90;2.40;;;;;;;;;;107752;1270;25267;-78
2023/07/31 09:11:02;;;;;;;5.30;1.50;;;;;;;;;;107553;1270;25343;-80
2023/07/31 09:13:30;;;;;;;4.50;1.60;;;;;;;;;;107678;1248;22552;-81
2023/07/31 09:15:57;;;;;;;6.40;1.60;;;;;;;;;;107756;1270;22516;-80
2023/07/31 09:18:24;;;;;;;6.10;1.80;;;;;;;;;;107662;1270;25317;-80
2023/07/31 09:21:01;;;;;;;4.00;1.30;;;;;;;;;;107765;1270;25274;-81
2023/07/31 09:23:39;;;;;;;6.60;1.80;;;;;;;;;;107371;1248;24233;-76
2023/07/31 09:26:06;;;;;;;6.00;1.60;;;;;;;;;;107244;1271;23633;-78
2023/07/31 09:28:33;;;;;;;5.90;2.00;;;;;;;;;;107419;1271;22511;-83
2023/07/31 09:31:00;;;;;;;6.60;1.90;;;;;;;;;;107214;1271;22526;-78
2023/07/31 09:33:27;;;;;;;6.40;1.80;;;;;;;;;;107286;1270;25337;-74
2023/07/31 09:35:53;;;;;;;8.20;1.90;;;;;;;;;;107387;1263;22535;-84
2023/07/31 09:38:20;;;;;;;6.20;1.90;;;;;;;;;;107353;1271;25349;-76
2023/07/31 09:40:48;;;;;;;8.60;2.00;;;;;;;;;;107401;1271;22643;-76
2023/07/31 09:43:19;;;;;;;7.30;2.00;;;;;;;;;;107250;1272;25348;-81
2023/07/31 09:45:48;;;;;;;6.70;1.90;;;;;;;;;;107259;1254;24255;-78
2023/07/31 09:48:16;;;;;;;5.90;2.00;;;;;;;;;;107237;1273;24243;-78
2023/07/31 09:50:47;;;;;;;8.20;2.20;;;;;;;;;;107280;1273;25420;-80
2023/07/31 09:53:15;;;;;;;6.90;2.30;;;;;;;;;;107248;1273;25375;-80
2023/07/31 09:55:42;;;;;;;7.90;2.20;;;;;;;;;;107221;1272;22776;-84
2023/07/31 09:58:10;;;;;;;8.90;2.20;;;;;;;;;;107316;1272;22636;-80
2023/07/31 10:00:37;;;;;;;9.00;2.10;;;;;;;;;;107148;1272;22516;-78
2023/07/31 10:03:05;;;;;;;9.50;2.20;;;;;;;;;;107182;1272;22527;-84
2023/07/31 10:05:51;;;;;;;6.40;2.30;;;;;;;;;;107288;1253;22523;-82
2023/07/31 10:08:18;;;;;;;8.30;2.60;;;;;;;;;;107279;1260;22485;-79
2023/07/31 10:10:45;;;;;;;7.80;2.40;;;;;;;;;;107302;1272;25213;-79
2023/07/31 10:13:12;;;;;;;7.80;2.70;;;;;;;;;;107184;1272;22562;-81
2023/07/31 10:15:41;;;;;;;6.50;2.40;;;;;;;;;;107227;1254;23930;-79
2023/07/31 10:18:08;;;;;;;7.10;2.40;;;;;;;;;;107412;1273;22541;-75
2023/07/31 10:20:35;;;;;;;9.90;2.50;;;;;;;;;;107147;1256;22517;-81
2023/07/31 10:23:03;;;;;;;7.00;2.30;;;;;;;;;;107193;1273;25340;-82
2023/07/31 10:25:38;;;;;;;11.30;2.70;;;;;;;;;;107125;1256;24256;-80
2023/07/31 10:28:05;;;;;;;9.00;2.80;;;;;;;;;;107251;1272;22577;-83
2023/07/31 10:30:34;;;;;;;8.80;2.60;;;;;;;;;;107212;1266;22527;-79
2023/07/31 10:33:02;;;;;;;9.40;2.50;;;;;;;;;;107375;1272;22476;-80
2023/07/31 10:35:28;;;;;;;6.40;2.00;;;;;;;;;;110755;1256;22108;-75
2023/07/31 10:37:55;;;;;;;6.60;2.40;;;;;;;;;;110735;1273;22097;-75
2023/07/31 10:40:26;;;;;;;6.30;2.40;;;;;;;;;;110725;1273;22177;-75
2023/07/31 10:42:54;;;;;;;9.50;2.90;;;;;;;;;;110575;1274;22789;-75
2023/07/31 10:45:26;;;;;;;7.40;2.50;;;;;;;;;;110638;1250;22122;-75
2023/07/31 10:48:00;;;;;;;7.50;2.20;;;;;;;;;;110602;1273;22003;-75
2023/07/31 10:50:27;;;;;;;6.10;2.40;;;;;;;;;;110616;1273;22086;-75
2023/07/31 10:52:55;;;;;;;5.40;2.20;;;;;;;;;;110686;1273;22792;-75
2023/07/31 10:55:26;;;;;;;5.50;2.20;;;;;;;;;;110624;1250;22861;-75
2023/07/31 10:57:57;;;;;;;5.10;2.20;;;;;;;;;;110550;1274;22841;-75
2023/07/31 11:00:28;;;;;;;5.70;2.00;;;;;;;;;;110659;1274;22159;-76
2023/07/31 11:03:10;;;;;;;7.50;2.20;;;;;;;;;;110570;1274;22087;-76
2023/07/31 11:05:40;;;;;;;6.10;2.30;;;;;;;;;;110596;1251;22126;-75
2023/07/31 11:08:26;;;;;;;5.40;2.20;;;;;;;;;;110624;1273;22124;-75
2023/07/31 11:11:02;;;;;;;6.70;2.50;;;;;;;;;;110637;1273;22111;-76
2023/07/31 11:13:29;;;;;;;4.90;2.10;;;;;;;;;;110634;1273;22119;-76
2023/07/31 11:15:56;;;;;;;7.30;2.30;;;;;;;;;;110651;1250;21990;-76
2023/07/31 11:18:26;;;;;;;6.10;2.40;;;;;;;;;;110585;1274;22215;-76
2023/07/31 11:20:53;;;;;;;6.40;2.20;;;;;;;;;;111045;1264;22595;-77
2023/07/31 11:23:21;;;;;;;8.50;2.50;;;;;;;;;;110572;1274;22107;-77
2023/07/31 11:25:49;;;;;;;6.20;2.40;;;;;;;;;;110666;1250;22392;-77
2023/07/31 11:28:16;;;;;;;7.20;2.40;;;;;;;;;;110644;1268;22114;-79
2023/07/31 11:30:44;;;;;;;6.50;2.50;;;;;;;;;;110623;1273;22275;-76
2023/07/31 11:33:11;;;;;;;9.70;2.70;;;;;;;;;;110583;1273;22131;-77
2023/07/31 11:35:41;;;;;;;6.00;2.60;;;;;;;;;;110691;1273;22099;-77
2023/07/31 11:38:08;;;;;;;7.00;2.50;;;;;;;;;;110753;1255;22309;-76
2023/07/31 11:40:44;;;;;;;5.50;2.10;;;;;;;;;;110645;1274;22868;-78
2023/07/31 11:43:13;;;;;;;5.20;2.20;;;;;;;;;;110676;1273;22093;-76
2023/07/31 11:45:40;;;;;;;8.10;2.50;;;;;;;;;;110713;1273;22105;-76
2023/07/31 11:48:07;;;;;;;4.40;2.00;;;;;;;;;;110670;1252;22268;-77
2023/07/31 11:50:35;;;;;;;4.50;2.00;;;;;;;;;;110619;1273;22064;-76
2023/07/31 11:53:14;;;;;;;7.80;2.50;;;;;;;;;;110701;1273;22078;-77
2023/07/31 11:55:41;;;;;;;6.30;2.70;;;;;;;;;;110652;1273;22712;-76
2023/07/31 11:58:08;;;;;;;6.80;2.40;;;;;;;;;;110929;1255;22149;-77
2023/07/31 12:00:35;;;;;;;6.60;2.40;;;;;;;;;;110718;1273;22232;-77
2023/07/31 12:03:02;;;;;;;6.10;2.50;;;;;;;;;;110699;1273;22205;-77
2023/07/31 12:05:29;;;;;;;5.60;2.40;;;;;;;;;;110622;1273;22353;-77
2023/07/31 12:07:57;;;;;;;5.30;2.20;;;;;;;;;;110647;1256;22110;-76
2023/07/31 12:10:31;;;;;;;8.80;2.60;;;;;;;;;;110638;1273;22290;-77
2023/07/31 12:13:00;;;;;;;8.60;2.30;;;;;;;;;;110694;1273;22122;-77
2023/07/31 12:15:53;;;;;;;7.70;2.80;;;;;;;;;;110657;1273;22122;-76
2023/07/31 12:18:23;;;;;;;8.50;2.50;;;;;;;;;;110839;1250;22175;-76
2023/07/31 12:20:59;;;;;;;5.50;2.70;;;;;;;;;;110671;1273;22203;-77
2023/07/31 12:23:30;;;;;;;5.70;2.30;;;;;;;;;;110644;1273;22315;-77
2023/07/31 12:26:02;;;;;;;7.30;2.40;;;;;;;;;;110657;1273;22162;-78
2023/07/31 12:28:28;;;;;;;8.10;2.60;;;;;;;;;;110700;1254;22184;-79
2023/07/31 12:30:57;;;;;;;8.20;2.40;;;;;;;;;;110670;1273;22140;-78
2023/07/31 12:33:33;;;;;;;8.30;2.40;;;;;;;;;;110621;1273;22119;-78
2023/07/31 12:36:03;;;;;;;9.30;2.80;;;;;;;;;;110646;1273;22108;-77
2023/07/31 12:38:30;;;;;;;7.50;2.40;;;;;;;;;;110929;1256;21675;-77
2023/07/31 12:40:57;;;;;;;9.30;2.40;;;;;;;;;;110613;1274;22118;-77
2023/07/31 12:43:24;;;;;;;11.60;2.90;;;;;;;;;;110617;1274;22164;-77
2023/07/31 12:45:51;;;;;;;8.20;2.60;;;;;;;;;;110595;1274;22073;-77
2023/07/31 12:48:18;;;;;;;9.70;2.80;;;;;;;;;;110768;1256;22118;-78
2023/07/31 12:50:44;;;;;;;8.00;2.60;;;;;;;;;;110587;1274;22930;-83
2023/07/31 12:53:11;;;;;;;5.50;2.40;;;;;;;;;;110596;1274;22148;-79
2023/07/31 12:55:38;;;;;;;4.40;2.10;;;;;;;;;;110558;1275;22925;-80
2023/07/31 12:58:06;;;;;;;4.90;2.30;;;;;;;;;;110732;1253;22183;-77
2023/07/31 13:00:39;;;;;;;7.30;2.40;;;;;;;;;;110586;1272;22861;-78
2023/07/31 13:03:06;;;;;;;6.80;2.10;;;;;;;;;;110655;1274;22138;-79
2023/07/31 13:05:33;;;;;;;5.90;2.40;;;;;;;;;;110674;1274;22864;-78
2023/07/31 13:08:00;;;;;;;8.60;2.50;;;;;;;;;;110563;1251;23031;-78
2023/07/31 13:10:28;;;;;;;9.70;2.40;;;;;;;;;;110612;1274;22894;-76
2023/07/31 13:12:55;;;;;;;9.90;2.50;;;;;;;;;;110657;1274;22102;-77
2023/07/31 13:15:22;;;;;;;6.10;2.50;;;;;;;;;;110659;1262;22955;-77
2023/07/31 13:17:48;;;;;;;6.10;2.70;;;;;;;;;;110502;1274;22727;-77
2023/07/31 13:20:15;;;;;;;7.50;2.40;;;;;;;;;;110965;1253;22805;-76
2023/07/31 13:22:42;;;;;;;8.00;2.40;;;;;;;;;;110605;1274;22103;-77
2023/07/31 13:25:09;;;;;;;8.90;2.60;;;;;;;;;;110629;1274;22086;-78
2023/07/31 13:27:35;;;;;;;7.00;2.70;;;;;;;;;;110623;1274;21644;-79
2023/07/31 13:30:03;;;;;;;5.80;2.40;;;;;;;;;;110948;1255;22108;-76
2023/07/31 13:32:30;;;;;;;5.00;2.30;;;;;;;;;;110612;1274;22153;-77
2023/07/31 13:34:59;;;;;;;6.10;2.60;;;;;;;;;;110596;1272;22213;-82
2023/07/31 13:37:26;;;;;;;5.50;2.70;;;;;;;;;;110547;1276;22118;-76
2023/07/31 13:39:53;;;;;;;10.80;2.90;;;;;;;;;;110821;1254;22122;-77
2023/07/31 13:42:20;;;;;;;7.30;2.40;;;;;;;;;;110557;1275;22418;-77
2023/07/31 13:44:46;;;;;;;6.70;2.40;;;;;;;;;;110590;1275;22101;-80
2023/07/31 13:47:13;;;;;;;8.90;2.40;;;;;;;;;;110428;1272;22122;-78
2023/07/31 13:49:43;;;;;;;8.20;2.60;;;;;;;;;;110789;1256;22844;-77
2023/07/31 13:52:10;;;;;;;6.70;2.10;;;;;;;;;;110546;1273;22072;-77
2023/07/31 13:54:37;;;;;;;5.40;2.20;;;;;;;;;;110538;1273;22709;-77
2023/07/31 13:57:04;;;;;;;7.80;2.60;;;;;;;;;;110695;1273;22188;-77
2023/07/31 13:59:31;;;;;;;7.70;2.50;;;;;;;;;;110617;1255;22113;-80
2023/07/31 14:02:07;;;;;;;6.30;2.50;;;;;;;;;;110563;1275;22097;-77
2023/07/31 14:04:37;;;;;;;8.30;2.70;;;;;;;;;;110579;1275;22056;-77
2023/07/31 14:07:06;;;;;;;5.90;2.60;;;;;;;;;;110605;1275;22092;-81
2023/07/31 14:09:33;;;;;;;8.70;2.50;;;;;;;;;;110617;1255;22063;-77
2023/07/31 14:12:04;;;;;;;5.70;2.30;;;;;;;;;;110684;1274;22890;-76
2023/07/31 14:14:34;;;;;;;5.30;2.30;;;;;;;;;;110463;1274;22833;-77
2023/07/31 14:17:02;;;;;;;5.20;2.20;;;;;;;;;;110646;1274;22087;-77
2023/07/31 14:19:32;;;;;;;5.40;2.20;;;;;;;;;;110465;1251;22091;-77
2023/07/31 14:22:02;;;;;;;8.10;2.60;;;;;;;;;;110601;1275;22083;-78
2023/07/31 14:24:32;;;;;;;6.10;2.20;;;;;;;;;;110638;1275;22821;-77
2023/07/31 14:26:58;;;;;;;5.50;2.00;;;;;;;;;;110619;1274;22119;-76
2023/07/31 14:29:30;;;;;;;8.60;2.20;;;;;;;;;;110576;1251;22149;-78
2023/07/31 14:32:16;;;;;;;6.20;2.30;;;;;;;;;;110609;1275;22757;-79
2023/07/31 14:34:46;;;;;;;9.00;2.30;;;;;;;;;;110642;1274;22126;-78
2023/07/31 14:37:27;;;;;;;5.40;2.00;;;;;;;;;;110652;1274;22739;-78
2023/07/31 14:40:00;;;;;;;5.30;2.10;;;;;;;;;;110703;1251;22761;-78
2023/07/31 14:42:30;;;;;;;4.00;1.70;;;;;;;;;;110595;1275;21859;-79